createdAt,value
2017-06-21T00:00:33.158Z,74.80
2017-06-21T00:03:00.446Z,74.80
2017-06-21T00:05:27.712Z,74.80
2017-06-21T00:07:55.094Z,74.80
2017-06-21T00:10:22.387Z,74.70
2017-06-21T00:12:49.673Z,74.80
2017-06-21T00:15:16.964Z,74.70
2017-06-21T00:17:44.225Z,74.70
2017-06-21T00:20:11.492Z,74.70
2017-06-21T00:22:38.760Z,74.70
2017-06-21T00:25:06.032Z,74.70
2017-06-21T00:27:33.368Z,74.70
2017-06-21T00:30:00.641Z,74.70
2017-06-21T00:32:28.055Z,74.70
2017-06-21T00:34:55.348Z,74.70
2017-06-21T00:37:22.617Z,74.70
2017-06-21T00:39:50.331Z,74.70
2017-06-21T00:42:18.664Z,74.70
2017-06-21T00:44:45.954Z,74.70
2017-06-21T00:47:13.228Z,74.70
2017-06-21T00:49:40.500Z,74.70
2017-06-21T00:52:07.768Z,74.70
2017-06-21T00:54:35.035Z,74.70
2017-06-21T00:57:02.327Z,74.70
2017-06-21T00:59:29.615Z,74.70
2017-06-21T01:01:56.893Z,74.70
2017-06-21T01:04:24.557Z,74.70
2017-06-21T01:06:51.854Z,74.70
2017-06-21T01:09:19.132Z,74.70
2017-06-21T01:11:46.410Z,74.70
2017-06-21T01:14:14.090Z,74.70
2017-06-21T01:16:41.370Z,74.70
2017-06-21T01:19:08.649Z,74.70
2017-06-21T01:21:35.939Z,74.70
2017-06-21T01:24:03.605Z,74.70
2017-06-21T01:26:31.152Z,74.70
2017-06-21T01:28:58.816Z,74.70
2017-06-21T01:31:26.086Z,74.70
2017-06-21T01:33:53.383Z,74.70
2017-06-21T01:36:20.698Z,74.70
2017-06-21T01:38:47.972Z,74.70
2017-06-21T01:41:15.259Z,74.70
2017-06-21T01:43:42.549Z,74.70
2017-06-21T01:46:09.838Z,74.70
2017-06-21T01:48:37.122Z,74.70
2017-06-21T01:51:04.410Z,74.70
2017-06-21T01:53:31.875Z,74.70
2017-06-21T01:55:59.164Z,74.70
2017-06-21T01:58:26.432Z,74.70
2017-06-21T02:00:53.719Z,74.70
2017-06-21T02:03:21.385Z,74.70
2017-06-21T02:05:48.652Z,74.70
2017-06-21T02:08:15.942Z,74.70
2017-06-21T02:10:43.212Z,74.70
2017-06-21T02:13:10.502Z,74.70
2017-06-21T02:15:37.772Z,74.70
2017-06-21T02:18:05.049Z,74.70
2017-06-21T02:20:32.316Z,74.70
2017-06-21T02:22:59.783Z,74.70
2017-06-21T02:25:27.401Z,74.70
2017-06-21T02:27:54.963Z,74.70
2017-06-21T02:30:22.241Z,74.70
2017-06-21T02:32:49.521Z,74.70
2017-06-21T02:35:16.813Z,74.70
2017-06-21T02:37:44.107Z,74.70
2017-06-21T02:40:11.376Z,74.70
2017-06-21T02:42:38.673Z,74.60
2017-06-21T02:45:05.956Z,74.70
2017-06-21T02:47:33.243Z,74.70
2017-06-21T02:50:00.911Z,74.60
2017-06-21T02:52:28.424Z,74.70
2017-06-21T02:54:55.715Z,74.60
2017-06-21T02:57:22.992Z,74.70
2017-06-21T02:59:50.265Z,74.70
2017-06-21T03:02:17.555Z,74.70
2017-06-21T03:04:45.146Z,74.60
2017-06-21T03:07:12.839Z,74.60
2017-06-21T03:09:40.113Z,74.60
2017-06-21T03:12:07.399Z,74.60
2017-06-21T03:14:34.693Z,74.70
2017-06-21T03:17:02.396Z,74.60
2017-06-21T03:19:29.664Z,74.60
2017-06-21T03:21:56.936Z,74.60
2017-06-21T03:24:24.222Z,74.60
2017-06-21T03:26:51.501Z,74.60
2017-06-21T03:29:18.786Z,74.60
2017-06-21T03:31:46.455Z,74.60
2017-06-21T03:34:13.734Z,74.60
2017-06-21T03:36:41.024Z,74.60
2017-06-21T03:39:08.306Z,74.60
2017-06-21T03:41:35.986Z,74.60
2017-06-21T03:44:03.467Z,74.60
2017-06-21T03:46:30.741Z,74.60
2017-06-21T03:48:58.035Z,74.60
2017-06-21T03:51:25.305Z,74.60
2017-06-21T03:53:52.569Z,74.60
2017-06-21T03:56:19.876Z,74.60
2017-06-21T03:58:47.153Z,74.60
2017-06-21T04:01:14.425Z,74.60
2017-06-21T04:03:41.706Z,74.60
2017-06-21T04:06:08.980Z,74.60
2017-06-21T04:08:36.257Z,74.60
2017-06-21T04:11:03.942Z,74.50
2017-06-21T04:13:31.221Z,74.60
2017-06-21T04:15:58.508Z,74.50
2017-06-21T04:18:25.800Z,74.50
2017-06-21T04:20:53.068Z,74.50
2017-06-21T04:23:20.337Z,74.50
2017-06-21T04:25:47.612Z,74.50
2017-06-21T04:28:14.892Z,74.50
2017-06-21T04:30:42.182Z,74.50
2017-06-21T04:33:09.635Z,74.50
2017-06-21T04:35:36.905Z,74.50
2017-06-21T04:38:04.171Z,74.50
2017-06-21T04:40:31.452Z,74.50
2017-06-21T04:42:58.760Z,74.50
2017-06-21T04:45:26.038Z,74.50
2017-06-21T04:47:53.329Z,74.50
2017-06-21T04:50:20.611Z,74.50
2017-06-21T04:52:47.903Z,74.50
2017-06-21T04:55:15.176Z,74.50
2017-06-21T04:57:42.837Z,74.50
2017-06-21T05:00:10.127Z,74.50
2017-06-21T05:02:37.424Z,74.50
2017-06-21T05:05:04.693Z,74.50
2017-06-21T05:07:31.974Z,74.50
2017-06-21T05:09:59.244Z,74.50
2017-06-21T05:12:26.566Z,74.50
2017-06-21T05:14:53.839Z,74.60
2017-06-21T05:17:21.107Z,74.60
2017-06-21T05:19:48.380Z,74.60
2017-06-21T05:22:15.653Z,74.60
2017-06-21T05:24:42.944Z,74.60
2017-06-21T05:27:10.231Z,74.60
2017-06-21T05:29:38.063Z,74.60
2017-06-21T05:32:05.360Z,74.60
2017-06-21T05:34:32.628Z,74.60
2017-06-21T05:36:59.919Z,74.60
2017-06-21T05:39:27.185Z,74.60
2017-06-21T05:41:54.615Z,74.60
2017-06-21T05:44:21.898Z,74.60
2017-06-21T05:46:49.187Z,74.60
2017-06-21T05:49:16.470Z,74.60
2017-06-21T05:51:44.160Z,74.50
2017-06-21T05:54:11.626Z,74.60
2017-06-21T05:56:38.896Z,74.60
2017-06-21T05:59:06.165Z,74.60
2017-06-21T06:01:33.260Z,74.60
2017-06-21T06:04:00.752Z,74.60
2017-06-21T06:06:28.042Z,74.60
2017-06-21T06:08:55.328Z,74.60
2017-06-21T06:11:22.621Z,74.60
2017-06-21T06:13:49.911Z,74.60
2017-06-21T06:16:17.180Z,74.60
2017-06-21T06:18:44.457Z,74.60
2017-06-21T06:21:11.754Z,74.60
2017-06-21T06:23:39.033Z,74.60
2017-06-21T06:26:06.792Z,74.60
2017-06-21T06:28:34.456Z,74.60
2017-06-21T06:31:01.749Z,74.60
2017-06-21T06:33:29.035Z,74.60
2017-06-21T06:35:56.327Z,74.60
2017-06-21T06:38:23.617Z,74.60
2017-06-21T06:40:50.897Z,74.60
2017-06-21T06:43:18.692Z,74.60
2017-06-21T06:45:46.481Z,74.60
2017-06-21T06:48:13.765Z,74.60
2017-06-21T06:50:41.032Z,74.60
2017-06-21T06:53:08.333Z,74.60
2017-06-21T06:55:35.618Z,74.60
2017-06-21T06:58:02.907Z,74.60
2017-06-21T07:00:30.180Z,74.60
2017-06-21T07:02:57.887Z,74.60
2017-06-21T07:05:25.182Z,74.60
2017-06-21T07:07:52.848Z,74.60
2017-06-21T07:10:20.326Z,74.60
2017-06-21T07:12:47.605Z,74.60
2017-06-21T07:15:15.046Z,74.60
2017-06-21T07:17:42.331Z,74.60
2017-06-21T07:20:09.619Z,74.60
2017-06-21T07:22:37.324Z,74.60
2017-06-21T07:25:04.588Z,74.60
2017-06-21T07:27:31.874Z,74.60
2017-06-21T07:29:59.154Z,74.60
2017-06-21T07:32:26.428Z,74.60
2017-06-21T07:34:53.706Z,74.60
2017-06-21T07:37:20.972Z,74.60
2017-06-21T07:39:48.258Z,74.60
2017-06-21T07:42:15.525Z,74.60
2017-06-21T07:44:42.796Z,74.60
2017-06-21T07:47:10.148Z,74.60
2017-06-21T07:49:37.430Z,74.60
2017-06-21T07:52:04.715Z,74.60
2017-06-21T07:54:32.398Z,74.60
2017-06-21T07:56:59.676Z,74.60
2017-06-21T07:59:26.960Z,74.60
2017-06-21T08:01:54.252Z,74.60
2017-06-21T08:04:21.542Z,74.60
2017-06-21T08:06:48.817Z,74.60
2017-06-21T08:09:16.099Z,74.60
2017-06-21T08:11:43.373Z,74.60
2017-06-21T08:14:10.645Z,74.60
2017-06-21T08:16:37.924Z,74.60
2017-06-21T08:19:05.511Z,74.60
2017-06-21T08:21:32.781Z,74.60
2017-06-21T08:24:00.072Z,74.60
2017-06-21T08:26:27.368Z,74.60
2017-06-21T08:28:54.655Z,74.60
2017-06-21T08:31:21.943Z,74.60
2017-06-21T08:33:49.213Z,74.60
2017-06-21T08:36:16.499Z,75.00
2017-06-21T08:38:44.055Z,75.10
2017-06-21T08:41:11.333Z,75.40
2017-06-21T08:43:38.601Z,75.20
2017-06-21T08:46:05.884Z,75.30
2017-06-21T08:48:33.152Z,75.30
2017-06-21T08:51:00.432Z,75.40
2017-06-21T08:53:27.531Z,75.40
2017-06-21T08:55:54.805Z,75.50
2017-06-21T08:58:22.101Z,75.40
2017-06-21T09:00:49.369Z,75.40
2017-06-21T09:03:16.644Z,75.40
2017-06-21T09:05:43.909Z,75.40
2017-06-21T09:08:11.300Z,75.40
2017-06-21T09:10:38.569Z,75.40
2017-06-21T09:13:05.838Z,75.40
2017-06-21T09:15:33.125Z,75.40
2017-06-21T09:18:00.420Z,75.50
2017-06-21T09:20:27.699Z,75.40
2017-06-21T09:22:54.969Z,75.50
2017-06-21T09:25:22.241Z,75.50
2017-06-21T09:27:49.531Z,75.40
2017-06-21T09:30:16.815Z,75.40
2017-06-21T09:32:44.085Z,75.50
2017-06-21T09:35:11.349Z,75.40
2017-06-21T09:37:38.634Z,75.50
2017-06-21T09:40:05.908Z,75.50
2017-06-21T09:42:33.180Z,75.50
2017-06-21T09:45:00.448Z,75.50
2017-06-21T09:47:27.721Z,75.50
2017-06-21T09:49:54.996Z,75.50
2017-06-21T09:52:22.391Z,75.50
2017-06-21T09:54:49.664Z,75.50
2017-06-21T09:57:16.954Z,75.60
2017-06-21T09:59:44.123Z,75.50
2017-06-21T10:02:11.446Z,75.50
2017-06-21T10:04:38.731Z,75.60
2017-06-21T10:07:06.005Z,75.60
2017-06-21T10:09:33.281Z,75.70
2017-06-21T10:12:00.557Z,75.60
2017-06-21T10:14:28.226Z,75.70
2017-06-21T10:16:55.497Z,75.70
2017-06-21T10:19:22.787Z,75.70
2017-06-21T10:21:50.071Z,75.70
2017-06-21T10:24:17.490Z,75.70
2017-06-21T10:26:44.756Z,75.70
2017-06-21T10:29:12.045Z,75.60
2017-06-21T10:31:39.317Z,75.60
2017-06-21T10:34:06.609Z,75.60
2017-06-21T10:36:33.934Z,75.60
2017-06-21T10:39:01.226Z,75.60
2017-06-21T10:41:28.515Z,75.50
2017-06-21T10:43:56.276Z,75.50
2017-06-21T10:46:23.936Z,75.50
2017-06-21T10:48:51.505Z,75.50
2017-06-21T10:51:19.171Z,75.50
2017-06-21T10:53:46.472Z,75.40
2017-06-21T10:56:13.759Z,75.50
2017-06-21T10:58:41.050Z,75.40
2017-06-21T11:01:08.320Z,75.40
2017-06-21T11:03:35.634Z,75.40
2017-06-21T11:06:02.923Z,75.40
2017-06-21T11:08:30.228Z,75.40
2017-06-21T11:10:57.912Z,75.40
2017-06-21T11:13:25.183Z,75.40
2017-06-21T11:15:52.929Z,75.40
2017-06-21T11:18:20.201Z,75.40
2017-06-21T11:20:47.487Z,75.40
2017-06-21T11:23:14.753Z,75.40
2017-06-21T11:25:42.032Z,75.40
2017-06-21T11:28:09.316Z,75.30
2017-06-21T11:30:36.603Z,75.30
2017-06-21T11:33:03.867Z,75.30
2017-06-21T11:35:31.175Z,75.30
2017-06-21T11:37:58.449Z,75.30
2017-06-21T11:40:25.711Z,75.30
2017-06-21T11:42:52.971Z,75.30
2017-06-21T11:45:20.255Z,75.30
2017-06-21T11:47:47.735Z,75.30
2017-06-21T11:50:15.020Z,75.30
2017-06-21T11:52:42.286Z,75.30
2017-06-21T11:55:09.557Z,75.30
2017-06-21T11:57:36.828Z,75.30
2017-06-21T12:00:04.115Z,75.20
2017-06-21T12:02:31.380Z,75.30
2017-06-21T12:04:58.662Z,75.20
2017-06-21T12:07:25.982Z,75.20
2017-06-21T12:09:53.263Z,75.20
2017-06-21T12:12:20.586Z,75.20
2017-06-21T12:14:47.878Z,75.20
2017-06-21T12:17:15.153Z,75.20
2017-06-21T12:19:42.439Z,75.20
2017-06-21T12:22:09.729Z,75.20
2017-06-21T12:24:37.011Z,75.20
2017-06-21T12:27:04.294Z,75.20
2017-06-21T12:29:31.663Z,75.20
2017-06-21T12:31:58.932Z,75.20
2017-06-21T12:34:26.196Z,75.20
2017-06-21T12:36:54.388Z,75.20
2017-06-21T12:39:22.052Z,75.20
2017-06-21T12:41:49.330Z,75.20
2017-06-21T12:44:16.605Z,75.20
2017-06-21T12:46:43.877Z,75.20
2017-06-21T12:49:11.160Z,75.20
2017-06-21T12:51:39.101Z,75.20
2017-06-21T12:54:06.368Z,75.20
2017-06-21T12:56:33.646Z,75.20
2017-06-21T12:59:00.926Z,75.20
2017-06-21T13:01:28.210Z,75.20
2017-06-21T13:03:55.484Z,75.10
2017-06-21T13:06:22.779Z,75.10
2017-06-21T13:08:50.049Z,75.10
2017-06-21T13:11:17.322Z,75.10
2017-06-21T13:13:44.662Z,75.10
2017-06-21T13:16:11.936Z,75.10
2017-06-21T13:18:39.312Z,75.10
2017-06-21T13:21:06.980Z,75.10
2017-06-21T13:23:34.094Z,75.10
2017-06-21T13:26:01.379Z,75.10
2017-06-21T13:28:29.057Z,75.10
2017-06-21T13:30:56.347Z,75.10
2017-06-21T13:33:23.621Z,75.10
2017-06-21T13:35:50.911Z,75.10
2017-06-21T13:38:18.595Z,75.10
2017-06-21T13:40:45.896Z,75.10
2017-06-21T13:43:13.186Z,75.10
2017-06-21T13:45:40.616Z,75.10
2017-06-21T13:48:07.889Z,75.10
2017-06-21T13:50:35.571Z,75.10
2017-06-21T13:53:02.839Z,75.10
2017-06-21T13:55:31.251Z,75.10
2017-06-21T13:57:59.320Z,75.10
2017-06-21T14:00:26.734Z,75.10
2017-06-21T14:02:54.068Z,75.10
2017-06-21T14:05:21.645Z,75.10
2017-06-21T14:07:49.412Z,75.10
2017-06-21T14:10:16.869Z,75.10
2017-06-21T14:12:44.161Z,75.10
2017-06-21T14:15:11.748Z,75.10
2017-06-21T14:17:40.273Z,75.10
2017-06-21T14:20:08.234Z,75.10
2017-06-21T14:22:35.505Z,75.10
2017-06-21T14:25:03.149Z,75.10
2017-06-21T14:27:30.491Z,75.10
2017-06-21T14:29:58.434Z,75.10
2017-06-21T14:32:25.700Z,75.10
2017-06-21T14:34:52.968Z,75.10
2017-06-21T14:37:20.363Z,75.10
2017-06-21T14:39:47.639Z,75.00
2017-06-21T14:42:14.923Z,75.10
2017-06-21T14:44:42.192Z,75.00
2017-06-21T14:47:09.470Z,75.00
2017-06-21T14:49:36.756Z,75.10
2017-06-21T14:52:04.033Z,75.00
2017-06-21T14:54:31.309Z,75.00
2017-06-21T14:56:58.581Z,75.00
2017-06-21T14:59:25.876Z,75.10
2017-06-21T15:01:53.392Z,75.00
2017-06-21T15:04:20.912Z,75.00
2017-06-21T15:06:48.186Z,75.00
2017-06-21T15:09:15.460Z,75.00
2017-06-21T15:11:42.732Z,75.10
2017-06-21T15:14:10.004Z,75.00
2017-06-21T15:16:37.296Z,75.00
2017-06-21T15:19:04.564Z,75.00
2017-06-21T15:21:31.831Z,75.00
2017-06-21T15:23:59.102Z,75.00
2017-06-21T15:26:26.371Z,75.00
2017-06-21T15:28:53.646Z,75.00
2017-06-21T15:31:20.935Z,75.00
2017-06-21T15:33:48.232Z,75.00
2017-06-21T15:36:15.900Z,75.00
2017-06-21T15:38:43.172Z,75.00
2017-06-21T15:41:10.633Z,75.00
2017-06-21T15:43:37.919Z,75.00
2017-06-21T15:46:05.208Z,75.00
2017-06-21T15:48:32.890Z,75.00
2017-06-21T15:51:00.168Z,75.00
2017-06-21T15:53:27.445Z,75.00
2017-06-21T15:55:54.723Z,75.00
2017-06-21T15:58:22.403Z,75.00
2017-06-21T16:00:49.682Z,75.00
2017-06-21T16:03:16.952Z,75.00
2017-06-21T16:05:44.083Z,75.00
2017-06-21T16:08:11.378Z,75.00
2017-06-21T16:10:38.648Z,75.00
2017-06-21T16:13:05.920Z,75.00
2017-06-21T16:15:33.193Z,75.00
2017-06-21T16:18:00.483Z,75.00
2017-06-21T16:20:27.756Z,75.00
2017-06-21T16:22:55.453Z,75.00
2017-06-21T16:25:22.985Z,75.00
2017-06-21T16:27:50.283Z,75.00
2017-06-21T16:30:17.568Z,75.00
2017-06-21T16:32:44.845Z,75.00
2017-06-21T16:35:12.135Z,75.00
2017-06-21T16:37:39.412Z,75.00
2017-06-21T16:40:06.680Z,75.00
2017-06-21T16:42:33.966Z,75.00
2017-06-21T16:45:02.648Z,75.00
2017-06-21T16:47:30.337Z,75.00
2017-06-21T16:49:57.627Z,75.00
2017-06-21T16:52:24.916Z,75.00
2017-06-21T16:54:52.202Z,75.00
2017-06-21T16:57:19.477Z,75.00
2017-06-21T16:59:46.767Z,75.00
2017-06-21T17:02:14.455Z,75.00
2017-06-21T17:04:41.755Z,75.00
2017-06-21T17:07:09.047Z,75.00
2017-06-21T17:09:36.321Z,75.00
2017-06-21T17:12:03.612Z,75.00
2017-06-21T17:14:30.909Z,75.00
2017-06-21T17:16:58.600Z,75.00
2017-06-21T17:19:25.887Z,75.00
2017-06-21T17:21:53.171Z,75.00
2017-06-21T17:24:20.440Z,75.00
2017-06-21T17:26:47.735Z,75.00
2017-06-21T17:29:15.010Z,75.00
2017-06-21T17:31:42.291Z,75.00
2017-06-21T17:34:09.585Z,75.00
2017-06-21T17:36:36.874Z,75.00
2017-06-21T17:39:04.152Z,75.00
2017-06-21T17:41:31.433Z,75.00
2017-06-21T17:43:58.709Z,75.00
2017-06-21T17:46:25.986Z,75.00
2017-06-21T17:48:53.270Z,75.00
2017-06-21T17:51:20.638Z,75.00
2017-06-21T17:53:47.931Z,75.00
2017-06-21T17:56:15.241Z,75.00
2017-06-21T17:58:42.527Z,75.00
2017-06-21T18:01:09.659Z,75.00
2017-06-21T18:03:36.951Z,75.00
2017-06-21T18:06:04.249Z,75.00
2017-06-21T18:08:31.535Z,75.00
2017-06-21T18:10:58.829Z,75.00
2017-06-21T18:13:26.102Z,75.00
2017-06-21T18:15:53.391Z,75.00
2017-06-21T18:18:20.667Z,75.00
2017-06-21T18:20:47.941Z,75.00
2017-06-21T18:23:15.623Z,75.00
2017-06-21T18:25:42.907Z,75.00
2017-06-21T18:28:10.175Z,75.00
2017-06-21T18:30:37.455Z,75.00
2017-06-21T18:33:05.125Z,75.00
2017-06-21T18:35:32.598Z,75.00
2017-06-21T18:37:59.878Z,75.00
2017-06-21T18:40:27.170Z,75.00
2017-06-21T18:42:54.436Z,75.00
2017-06-21T18:45:22.104Z,75.00
2017-06-21T18:47:49.381Z,75.00
2017-06-21T18:50:16.668Z,75.00
2017-06-21T18:52:43.945Z,75.00
2017-06-21T18:55:11.221Z,75.00
2017-06-21T18:57:38.492Z,75.00
2017-06-21T19:00:05.760Z,75.00
2017-06-21T19:02:33.046Z,75.00
2017-06-21T19:05:01.274Z,75.00
2017-06-21T19:07:28.545Z,75.00
2017-06-21T19:09:55.840Z,75.00
2017-06-21T19:12:23.117Z,75.00
2017-06-21T19:14:50.408Z,75.00
2017-06-21T19:17:17.694Z,75.00
2017-06-21T19:19:44.983Z,75.00
2017-06-21T19:22:12.257Z,75.00
2017-06-21T19:24:39.546Z,75.00
2017-06-21T19:27:06.848Z,75.00
2017-06-21T19:29:34.141Z,75.00
2017-06-21T19:32:01.771Z,75.00
2017-06-21T19:34:29.230Z,75.00
2017-06-21T19:36:57.487Z,75.00
2017-06-21T19:39:25.986Z,75.00
2017-06-21T19:41:53.722Z,75.00
2017-06-21T19:44:21.825Z,75.00
2017-06-21T19:46:49.138Z,75.00
2017-06-21T19:49:16.737Z,75.00
2017-06-21T19:51:44.195Z,75.00
2017-06-21T19:54:12.227Z,75.00
2017-06-21T19:56:39.723Z,75.00
2017-06-21T19:59:07.029Z,75.00
2017-06-21T20:01:34.945Z,75.00
2017-06-21T20:04:02.258Z,75.00
2017-06-21T20:06:29.529Z,75.00
2017-06-21T20:08:57.314Z,75.00
2017-06-21T20:11:24.596Z,75.00
2017-06-21T20:13:52.201Z,75.00
2017-06-21T20:16:19.891Z,75.00
2017-06-21T20:18:47.161Z,75.00
2017-06-21T20:21:14.454Z,75.00
2017-06-21T20:23:41.734Z,75.00
2017-06-21T20:26:09.165Z,75.00
2017-06-21T20:28:36.960Z,75.00
2017-06-21T20:31:04.518Z,75.00
2017-06-21T20:33:31.788Z,75.00
2017-06-21T20:35:59.068Z,75.00
2017-06-21T20:38:26.344Z,75.00
2017-06-21T20:40:53.934Z,75.00
2017-06-21T20:43:21.331Z,75.00
2017-06-21T20:45:48.620Z,75.00
2017-06-21T20:48:15.913Z,75.00
2017-06-21T20:50:43.198Z,75.00
2017-06-21T20:53:10.475Z,75.00
2017-06-21T20:55:37.763Z,75.00
2017-06-21T20:58:05.033Z,75.00
2017-06-21T21:00:32.301Z,75.00
2017-06-21T21:02:59.587Z,75.00
2017-06-21T21:05:26.876Z,75.00
2017-06-21T21:07:54.167Z,75.00
2017-06-21T21:10:21.451Z,75.00
2017-06-21T21:12:48.743Z,75.00
2017-06-21T21:15:16.187Z,75.00
2017-06-21T21:17:43.474Z,75.00
2017-06-21T21:20:10.748Z,75.00
2017-06-21T21:22:38.572Z,75.00
2017-06-21T21:25:06.399Z,75.00
2017-06-21T21:27:34.102Z,75.00
2017-06-21T21:30:01.394Z,75.00
2017-06-21T21:32:28.683Z,75.00
2017-06-21T21:34:56.764Z,75.00
2017-06-21T21:37:24.054Z,75.00
2017-06-21T21:39:51.341Z,75.00
2017-06-21T21:42:19.556Z,75.00
2017-06-21T21:44:46.864Z,75.00
2017-06-21T21:47:14.131Z,75.10
2017-06-21T21:49:41.408Z,75.10
2017-06-21T21:52:08.699Z,75.10
2017-06-21T21:54:35.968Z,75.00
2017-06-21T21:57:03.254Z,75.10
2017-06-21T21:59:30.947Z,75.10
2017-06-21T22:01:58.244Z,75.10
2017-06-21T22:04:25.534Z,75.10
2017-06-21T22:06:52.826Z,75.10
2017-06-21T22:09:20.097Z,75.10
2017-06-21T22:11:47.387Z,75.10
2017-06-21T22:14:14.932Z,75.10
2017-06-21T22:16:42.222Z,75.10
2017-06-21T22:19:09.627Z,75.10
2017-06-21T22:21:36.907Z,75.10
2017-06-21T22:24:04.917Z,75.10
2017-06-21T22:26:32.185Z,75.10
2017-06-21T22:28:59.466Z,75.10
2017-06-21T22:31:27.051Z,75.10
2017-06-21T22:33:54.339Z,75.10
2017-06-21T22:36:22.572Z,75.10
2017-06-21T22:38:49.855Z,75.10
2017-06-21T22:41:17.125Z,75.10
2017-06-21T22:43:44.659Z,75.10
2017-06-21T22:46:12.186Z,75.10
2017-06-21T22:48:39.472Z,75.10
2017-06-21T22:51:06.758Z,75.10
2017-06-21T22:53:34.028Z,75.10
2017-06-21T22:56:01.315Z,75.10
2017-06-21T22:58:29.682Z,75.10
2017-06-21T23:00:58.840Z,75.10
2017-06-21T23:03:26.774Z,75.10
2017-06-21T23:05:54.053Z,75.10
2017-06-21T23:08:21.719Z,75.10
2017-06-21T23:10:49.011Z,75.10
2017-06-21T23:13:16.277Z,75.10
2017-06-21T23:15:44.284Z,75.10
2017-06-21T23:18:12.745Z,75.10
2017-06-21T23:20:40.202Z,75.10
2017-06-21T23:23:07.513Z,75.10
2017-06-21T23:25:34.908Z,75.10
2017-06-21T23:28:02.205Z,75.10
2017-06-21T23:30:29.495Z,75.10
2017-06-21T23:32:57.179Z,75.10
2017-06-21T23:35:24.622Z,75.10
2017-06-21T23:37:51.892Z,75.10
2017-06-21T23:40:19.155Z,75.10
2017-06-21T23:42:46.446Z,75.10
2017-06-21T23:45:15.195Z,75.10
2017-06-21T23:47:42.571Z,75.10
2017-06-21T23:50:09.840Z,75.10
2017-06-21T23:52:37.108Z,75.10
2017-06-21T23:55:05.144Z,75.10
2017-06-21T23:57:32.920Z,75.10
